Accueil
METAR-TAF:

METAR-TAF

Aéroports :

Base aérienne 115 Orange-Caritat

Orange, France

latitude: 44-08N, longitude: 004-50E, altitude: 60 m

Observation

Le bulletin a été fait il y a 1 heure et 41 minutes, à 19:30 UTC
Vent 3 kt de est/nord-est
Température 7°C
Humidité 87%
Pression 1021 hPa
Visibilité 10 km ou plus
Quelques nuages à une hauteur de 6400 ft
Nuages fragmentés à une hauteur de 9000 ft

METAR: LFMO 261930Z AUTO 06003KT 9999 FEW064 BKN090 07/05 Q1021 NOSIG

Heure: 22:11 (21:11 UTC)

Prévision

Le bulletin a été fait il y a 7 heures et 11 minutes, à 14:00 UTC
Prévision valable du 26 à 15 UTC au 27 à 15 UTC
Vent 5 kt de ouest/nord-ouest
Visibilité 10 km ou plus
pas de nuages en-dessous de 1500 mètres et pas de cumulonimbus.

TAF: LFMO 261400Z 2615/2715 30005KT CAVOK TX16/2713Z TN06/2706Z

Observations et prévisions météorologiques de plus de 4000 aéroports (messages METAR et TAF).

Les stations disponibles sont représentées par des disques jaunes et rouges sur la carte.

Passer la souris dessus pour voir le nom de la station.

Cliquer dessus pour voir les observations et prévisions météorologiques.

Pour changer de carte: cliquez sur les boutons verts avec une croix noire pour zoomer, sur le bouton vert avec un tiret pour effectuer un zoom arrière, ou sur les flèches vertes pour les cartes adjacentes.


METAR-TAF: